Time;durP1;ratioP1;P1;durP2;ratioP2;P2;SDS_P1;SDS_P2;PMS_P1;PMS_P2;Temp;Humidity;BMP_temperature;BMP_pressure;BME280_temperature;BME280_humidity;BME280_pressure;Samples;Min_cycle;Max_cycle;Signal;HPM_P1;HPM_P2
2022/03/15 00:00:50;;;;;;;;;3.00;3.00;;;;;;;;5094631;27;45318;-71
2022/03/15 00:03:15;;;;;;;;;4.75;3.00;;;;;;;;5095152;27;45353;-71
2022/03/15 00:05:40;;;;;;;;;2.25;2.25;;;;;;;;5092375;27;46708;-71
2022/03/15 00:08:07;;;;;;;;;5.00;3.00;;;;;;;;5092920;27;45382;-70
2022/03/15 00:10:32;;;;;;;;;4.50;3.00;;;;;;;;5090838;27;45516;-71
2022/03/15 00:12:57;;;;;;;;;2.00;2.00;;;;;;;;5093592;27;45476;-71
2022/03/15 00:15:24;;;;;;;;;4.00;4.00;;;;;;;;5095464;27;46621;-71
2022/03/15 00:17:49;;;;;;;;;2.00;2.00;;;;;;;;5093516;27;45378;-71
2022/03/15 00:20:17;;;;;;;;;3.00;3.00;;;;;;;;5093286;27;45350;-71
2022/03/15 00:22:43;;;;;;;;;4.75;3.50;;;;;;;;5090659;27;45551;-71
2022/03/15 00:25:09;;;;;;;;;5.50;5.50;;;;;;;;5092781;27;46635;-71
2022/03/15 00:27:35;;;;;;;;;4.00;2.00;;;;;;;;5095404;27;45423;-71
2022/03/15 00:30:01;;;;;;;;;2.00;2.00;;;;;;;;5093604;27;45337;-70
2022/03/15 00:32:27;;;;;;;;;2.00;2.00;;;;;;;;5091239;27;45326;-70
2022/03/15 00:34:52;;;;;;;;;4.75;3.50;;;;;;;;5091145;27;46952;-70
2022/03/15 00:37:18;;;;;;;;;3.75;3.00;;;;;;;;5095362;27;45292;-70
2022/03/15 00:39:43;;;;;;;;;3.75;3.50;;;;;;;;5098252;27;45423;-70
2022/03/15 00:42:08;;;;;;;;;2.00;2.00;;;;;;;;5098834;27;45457;-70
2022/03/15 00:44:34;;;;;;;;;1.75;1.75;;;;;;;;5094146;27;46461;-71
2022/03/15 00:46:59;;;;;;;;;3.50;2.00;;;;;;;;5095023;27;45536;-70
2022/03/15 00:49:25;;;;;;;;;2.75;2.75;;;;;;;;5095590;27;45378;-71
2022/03/15 00:51:51;;;;;;;;;1.25;1.25;;;;;;;;5094694;27;45319;-71
2022/03/15 00:54:16;;;;;;;;;2.00;1.75;;;;;;;;5097605;27;46505;-70
2022/03/15 00:56:41;;;;;;;;;3.00;2.00;;;;;;;;5096361;27;45380;-71
2022/03/15 00:59:08;;;;;;;;;2.00;2.00;;;;;;;;5096977;27;47076;-70
2022/03/15 01:01:33;;;;;;;;;2.00;2.00;;;;;;;;5095520;27;45490;-71
2022/03/15 01:03:59;;;;;;;;;2.00;2.00;;;;;;;;5096558;27;46426;-70
2022/03/15 01:06:24;;;;;;;;;3.75;3.00;;;;;;;;5077765;27;46061;-71
2022/03/15 01:08:49;;;;;;;;;3.25;1.75;;;;;;;;5096094;27;45370;-71
2022/03/15 01:11:14;;;;;;;;;2.00;2.00;;;;;;;;5094861;27;45443;-70
2022/03/15 01:13:39;;;;;;;;;5.00;2.75;;;;;;;;5078372;27;45398;-71
2022/03/15 01:16:05;;;;;;;;;4.00;3.00;;;;;;;;5077886;27;45363;-71
2022/03/15 01:18:31;;;;;;;;;3.00;3.00;;;;;;;;5098318;27;45445;-70
2022/03/15 01:20:56;;;;;;;;;3.25;2.00;;;;;;;;5095678;27;45445;-71
2022/03/15 01:23:21;;;;;;;;;4.00;2.75;;;;;;;;5094646;27;45454;-71
2022/03/15 01:25:47;;;;;;;;;1.00;1.00;;;;;;;;5095875;27;45388;-70
2022/03/15 01:28:14;;;;;;;;;1.00;1.00;;;;;;;;5094983;27;45425;-71
2022/03/15 01:30:39;;;;;;;;;2.00;2.00;;;;;;;;5098288;27;45522;-71
2022/03/15 01:33:05;;;;;;;;;3.00;2.00;;;;;;;;5095808;27;46029;-70
2022/03/15 01:35:30;;;;;;;;;3.50;2.50;;;;;;;;5095282;27;45458;-70
2022/03/15 01:37:55;;;;;;;;;3.75;3.00;;;;;;;;5094480;27;45627;-70
2022/03/15 01:40:21;;;;;;;;;2.00;2.00;;;;;;;;5094634;27;45436;-70
2022/03/15 01:42:46;;;;;;;;;2.00;2.00;;;;;;;;5097101;27;45477;-71
2022/03/15 01:45:11;;;;;;;;;1.50;1.50;;;;;;;;5096112;27;45345;-71
2022/03/15 01:47:36;;;;;;;;;2.25;2.25;;;;;;;;5095761;27;45495;-71
2022/03/15 01:50:02;;;;;;;;;5.25;3.50;;;;;;;;5095079;27;45512;-70
2022/03/15 01:52:28;;;;;;;;;3.75;2.25;;;;;;;;5095789;27;46611;-70
2022/03/15 01:54:53;;;;;;;;;2.00;2.00;;;;;;;;5096851;27;45382;-71
2022/03/15 01:57:18;;;;;;;;;3.75;3.75;;;;;;;;5096877;27;45434;-70
2022/03/15 01:59:44;;;;;;;;;2.00;2.00;;;;;;;;5095659;27;45559;-70
2022/03/15 02:02:09;;;;;;;;;4.00;4.00;;;;;;;;5095086;27;45396;-70
2022/03/15 02:04:36;;;;;;;;;6.00;2.00;;;;;;;;5095693;27;45548;-71
2022/03/15 02:07:03;;;;;;;;;4.00;2.25;;;;;;;;5095650;27;45330;-71
2022/03/15 02:09:28;;;;;;;;;2.00;2.00;;;;;;;;5097422;27;45364;-71
2022/03/15 02:11:53;;;;;;;;;2.50;2.00;;;;;;;;5077534;27;46431;-71
2022/03/15 02:14:19;;;;;;;;;3.00;2.00;;;;;;;;5078325;27;45703;-70
2022/03/15 02:16:44;;;;;;;;;3.00;3.00;;;;;;;;5095297;27;45489;-70
2022/03/15 02:19:10;;;;;;;;;3.00;1.25;;;;;;;;5075696;27;45561;-71
2022/03/15 02:21:36;;;;;;;;;2.50;2.50;;;;;;;;5097228;27;47077;-71
2022/03/15 02:24:02;;;;;;;;;1.50;1.50;;;;;;;;5094642;27;45300;-70
2022/03/15 02:26:27;;;;;;;;;2.00;2.00;;;;;;;;5095211;27;45412;-70
2022/03/15 02:28:53;;;;;;;;;2.00;2.00;;;;;;;;5094895;27;45459;-71
2022/03/15 02:31:20;;;;;;;;;2.50;2.00;;;;;;;;5094496;27;45504;-70
2022/03/15 02:33:45;;;;;;;;;2.00;2.00;;;;;;;;5078017;27;45364;-71
2022/03/15 02:36:10;;;;;;;;;3.25;3.00;;;;;;;;5095695;27;45458;-70
2022/03/15 02:38:36;;;;;;;;;3.00;2.00;;;;;;;;5095224;27;45486;-70
2022/03/15 02:41:01;;;;;;;;;2.00;2.00;;;;;;;;5093101;27;46297;-70
2022/03/15 02:43:26;;;;;;;;;3.00;1.75;;;;;;;;5076833;27;45913;-70
2022/03/15 02:45:51;;;;;;;;;6.00;2.50;;;;;;;;5095522;27;45470;-71
2022/03/15 02:48:17;;;;;;;;;4.00;3.00;;;;;;;;5075989;27;45553;-71
2022/03/15 02:50:42;;;;;;;;;1.50;1.25;;;;;;;;5093217;27;46449;-71
2022/03/15 02:53:08;;;;;;;;;2.75;2.75;;;;;;;;5094245;27;45303;-70
2022/03/15 02:55:34;;;;;;;;;3.00;3.00;;;;;;;;5093317;27;45327;-70
2022/03/15 02:58:00;;;;;;;;;1.50;1.50;;;;;;;;5095506;27;45451;-70
2022/03/15 03:00:27;;;;;;;;;2.00;2.00;;;;;;;;5095674;27;47132;-70
2022/03/15 03:02:52;;;;;;;;;6.50;2.25;;;;;;;;5094618;27;45369;-70
2022/03/15 03:05:17;;;;;;;;;4.00;2.00;;;;;;;;5095103;27;45228;-70
2022/03/15 03:07:44;;;;;;;;;2.75;2.75;;;;;;;;5093419;27;45544;-70
2022/03/15 03:10:10;;;;;;;;;2.75;1.00;;;;;;;;5077362;27;46411;-71
2022/03/15 03:12:37;;;;;;;;;2.00;2.00;;;;;;;;5096237;27;45473;-70
2022/03/15 03:15:03;;;;;;;;;1.25;1.25;;;;;;;;5094359;27;45373;-71
2022/03/15 03:17:28;;;;;;;;;5.25;2.25;;;;;;;;5093057;27;45337;-71
2022/03/15 03:19:54;;;;;;;;;3.25;2.00;;;;;;;;5096823;27;46091;-71
2022/03/15 03:22:19;;;;;;;;;3.50;3.00;;;;;;;;5096326;27;45455;-71
2022/03/15 03:24:44;;;;;;;;;3.25;2.00;;;;;;;;5096006;27;45348;-71
2022/03/15 03:27:13;;;;;;;;;3.00;3.00;;;;;;;;5077867;27;45614;-71
2022/03/15 03:29:40;;;;;;;;;2.00;2.00;;;;;;;;5093871;27;46386;-71
2022/03/15 03:32:06;;;;;;;;;2.25;2.25;;;;;;;;5092311;27;45367;-70
2022/03/15 03:34:31;;;;;;;;;1.50;1.50;;;;;;;;5092678;27;45477;-71
2022/03/15 03:36:56;;;;;;;;;2.00;2.00;;;;;;;;5094812;27;45346;-71
2022/03/15 03:39:21;;;;;;;;;1.00;1.00;;;;;;;;5093608;27;45954;-70
2022/03/15 03:41:47;;;;;;;;;3.50;2.00;;;;;;;;5091753;27;45416;-71
2022/03/15 03:44:12;;;;;;;;;3.25;2.00;;;;;;;;5094011;27;45378;-70
2022/03/15 03:46:37;;;;;;;;;2.00;2.00;;;;;;;;5093979;27;45422;-70
2022/03/15 03:49:02;;;;;;;;;2.25;2.25;;;;;;;;5093413;27;46080;-71
2022/03/15 03:51:27;;;;;;;;;4.00;1.50;;;;;;;;5095995;27;45396;-71
2022/03/15 03:53:53;;;;;;;;;4.50;2.50;;;;;;;;5092624;27;45528;-71
2022/03/15 03:56:18;;;;;;;;;2.00;1.25;;;;;;;;5093880;27;45914;-71
2022/03/15 03:58:44;;;;;;;;;2.00;2.00;;;;;;;;5092983;27;45597;-70
2022/03/15 04:01:09;;;;;;;;;3.75;2.00;;;;;;;;5090771;27;45437;-71
2022/03/15 04:03:35;;;;;;;;;2.25;2.25;;;;;;;;5096157;27;45396;-70
2022/03/15 04:06:03;;;;;;;;;2.00;2.00;;;;;;;;5094270;27;45479;-70
2022/03/15 04:08:28;;;;;;;;;1.00;1.00;;;;;;;;5095531;27;46385;-70
2022/03/15 04:10:54;;;;;;;;;3.50;2.00;;;;;;;;5097955;27;45535;-71
2022/03/15 04:13:19;;;;;;;;;3.00;1.75;;;;;;;;5096949;27;46152;-71
2022/03/15 04:15:45;;;;;;;;;2.50;2.50;;;;;;;;5095957;27;45221;-71
2022/03/15 04:18:10;;;;;;;;;2.00;2.00;;;;;;;;5093662;27;46492;-70
2022/03/15 04:20:36;;;;;;;;;2.75;2.00;;;;;;;;5096836;27;45501;-70
2022/03/15 04:23:02;;;;;;;;;2.00;2.00;;;;;;;;5095565;27;45334;-71
2022/03/15 04:25:27;;;;;;;;;1.00;1.00;;;;;;;;5097567;27;45429;-71
2022/03/15 04:27:56;;;;;;;;;1.75;1.25;;;;;;;;5079110;27;46243;-70
2022/03/15 04:30:22;;;;;;;;;2.00;2.00;;;;;;;;5097026;27;45376;-71
2022/03/15 04:32:47;;;;;;;;;3.00;1.75;;;;;;;;5097069;27;45179;-71
2022/03/15 04:35:12;;;;;;;;;5.25;2.00;;;;;;;;5096542;27;45204;-71
2022/03/15 04:37:38;;;;;;;;;3.75;2.00;;;;;;;;5096693;27;47174;-70
2022/03/15 04:40:04;;;;;;;;;2.50;1.50;;;;;;;;5096626;27;45399;-70
2022/03/15 04:42:29;;;;;;;;;1.50;1.50;;;;;;;;5098748;27;45367;-71
2022/03/15 04:44:54;;;;;;;;;1.75;1.75;;;;;;;;5095425;27;45496;-70
2022/03/15 04:47:20;;;;;;;;;2.00;2.00;;;;;;;;5096418;27;46612;-70
2022/03/15 04:49:45;;;;;;;;;3.75;1.00;;;;;;;;5096178;27;45350;-70
2022/03/15 04:52:10;;;;;;;;;3.00;2.00;;;;;;;;5097593;27;45256;-70
2022/03/15 04:54:35;;;;;;;;;3.00;1.00;;;;;;;;5098783;27;45590;-70
2022/03/15 04:57:01;;;;;;;;;1.00;1.00;;;;;;;;5095413;27;46307;-70
2022/03/15 04:59:26;;;;;;;;;5.00;2.00;;;;;;;;5096394;27;45490;-70
2022/03/15 05:01:51;;;;;;;;;3.00;3.00;;;;;;;;5075760;27;45412;-70
2022/03/15 05:04:16;;;;;;;;;2.00;2.00;;;;;;;;5094505;27;45273;-71
2022/03/15 05:06:41;;;;;;;;;1.75;1.75;;;;;;;;5098602;27;45370;-70
2022/03/15 05:09:07;;;;;;;;;2.50;2.00;;;;;;;;5095402;27;45700;-70
2022/03/15 05:11:34;;;;;;;;;2.00;2.00;;;;;;;;5095824;27;45449;-71
2022/03/15 05:13:59;;;;;;;;;2.00;1.75;;;;;;;;5096185;27;45523;-71
2022/03/15 05:16:24;;;;;;;;;1.25;1.00;;;;;;;;5094868;27;47163;-70
2022/03/15 05:18:52;;;;;;;;;2.25;1.75;;;;;;;;5096959;27;45395;-70
2022/03/15 05:21:18;;;;;;;;;1.75;1.00;;;;;;;;5098097;27;45287;-70
2022/03/15 05:23:44;;;;;;;;;2.50;2.00;;;;;;;;5093578;27;45480;-70
2022/03/15 05:26:09;;;;;;;;;1.00;1.00;;;;;;;;5094397;27;46322;-70
2022/03/15 05:28:35;;;;;;;;;1.75;1.75;;;;;;;;5095863;27;45782;-71
2022/03/15 05:31:00;;;;;;;;;3.00;3.00;;;;;;;;5096597;27;45404;-71
2022/03/15 05:33:28;;;;;;;;;1.25;1.25;;;;;;;;5096779;27;45480;-71
2022/03/15 05:35:53;;;;;;;;;3.00;2.00;;;;;;;;5094314;27;45492;-71
2022/03/15 05:38:18;;;;;;;;;2.75;2.00;;;;;;;;5095892;27;45531;-71
2022/03/15 05:40:43;;;;;;;;;2.00;2.00;;;;;;;;5094625;27;45215;-71
2022/03/15 05:43:08;;;;;;;;;3.75;3.00;;;;;;;;5096031;27;45220;-70
2022/03/15 05:45:34;;;;;;;;;1.00;1.00;;;;;;;;5097947;27;46438;-70
2022/03/15 05:47:59;;;;;;;;;1.00;1.00;;;;;;;;5094081;27;45571;-71
2022/03/15 05:50:25;;;;;;;;;5.00;2.00;;;;;;;;5095570;27;45327;-70
2022/03/15 05:52:50;;;;;;;;;1.00;1.00;;;;;;;;5075842;27;45486;-71
2022/03/15 05:55:15;;;;;;;;;1.00;1.00;;;;;;;;5094160;27;46294;-70
2022/03/15 05:57:40;;;;;;;;;3.00;2.00;;;;;;;;5097886;27;45394;-71
2022/03/15 06:00:06;;;;;;;;;2.00;2.00;;;;;;;;5095602;27;45473;-70
2022/03/15 06:02:32;;;;;;;;;2.25;2.25;;;;;;;;5093809;27;45479;-70
2022/03/15 06:04:59;;;;;;;;;5.00;2.00;;;;;;;;5095543;27;45877;-69
2022/03/15 06:07:24;;;;;;;;;1.00;1.00;;;;;;;;5097671;27;45270;-70
2022/03/15 06:09:51;;;;;;;;;2.00;2.00;;;;;;;;5096898;27;45451;-70
2022/03/15 06:12:16;;;;;;;;;1.00;1.00;;;;;;;;5097682;27;45528;-70
2022/03/15 06:14:41;;;;;;;;;1.25;1.25;;;;;;;;5090085;27;47317;-70
2022/03/15 06:17:07;;;;;;;;;4.00;4.00;;;;;;;;5093102;27;45324;-70
2022/03/15 06:19:32;;;;;;;;;1.00;1.00;;;;;;;;5095350;27;45432;-69
2022/03/15 06:21:57;;;;;;;;;1.00;1.00;;;;;;;;5095132;27;45437;-70
2022/03/15 06:24:23;;;;;;;;;3.00;2.00;;;;;;;;5096479;27;47279;-70
2022/03/15 06:26:49;;;;;;;;;1.00;1.00;;;;;;;;5092881;27;45469;-70
2022/03/15 06:29:14;;;;;;;;;2.50;1.00;;;;;;;;5095154;27;45448;-70
2022/03/15 06:31:39;;;;;;;;;1.25;1.25;;;;;;;;5074595;28;45502;-70
2022/03/15 06:34:05;;;;;;;;;2.25;2.00;;;;;;;;5093300;27;47261;-70
2022/03/15 06:36:30;;;;;;;;;1.00;1.00;;;;;;;;5097280;27;45438;-70
2022/03/15 06:38:56;;;;;;;;;2.25;2.00;;;;;;;;5094433;27;45513;-68
2022/03/15 06:41:21;;;;;;;;;1.00;1.00;;;;;;;;5093521;27;45652;-68
2022/03/15 06:43:47;;;;;;;;;2.00;2.00;;;;;;;;5093212;27;45442;-67
2022/03/15 06:46:14;;;;;;;;;1.75;1.75;;;;;;;;5095265;27;45516;-71
2022/03/15 06:48:40;;;;;;;;;3.00;3.00;;;;;;;;5089913;27;45476;-68
2022/03/15 06:51:05;;;;;;;;;1.50;1.50;;;;;;;;5092322;27;46567;-68
2022/03/15 06:53:31;;;;;;;;;3.75;2.00;;;;;;;;5090413;27;46282;-68
2022/03/15 06:55:56;;;;;;;;;1.00;1.00;;;;;;;;5078756;27;45453;-68
2022/03/15 06:58:21;;;;;;;;;2.00;2.00;;;;;;;;5080804;27;45479;-69
2022/03/15 07:00:47;;;;;;;;;1.75;1.75;;;;;;;;5082484;27;45595;-69
2022/03/15 07:03:13;;;;;;;;;1.75;1.00;;;;;;;;5082870;27;46338;-69
2022/03/15 07:05:38;;;;;;;;;2.00;2.00;;;;;;;;5079479;27;45343;-69
2022/03/15 07:08:03;;;;;;;;;2.25;2.00;;;;;;;;5078167;27;45347;-70
2022/03/15 07:10:29;;;;;;;;;1.00;1.00;;;;;;;;5077280;27;45440;-69
2022/03/15 07:12:54;;;;;;;;;1.00;1.00;;;;;;;;5092633;27;46510;-69
2022/03/15 07:15:20;;;;;;;;;1.25;1.25;;;;;;;;5093431;27;45429;-67
2022/03/15 07:17:56;;;;;;;;;3.00;1.00;;;;;;;;5092585;27;45384;-69
2022/03/15 07:20:21;;;;;;;;;1.00;1.00;;;;;;;;5092478;27;45578;-68
2022/03/15 07:22:47;;;;;;;;;3.75;2.50;;;;;;;;5092170;27;46018;-69
2022/03/15 07:25:12;;;;;;;;;2.50;2.00;;;;;;;;5092550;27;46149;-69
2022/03/15 07:27:38;;;;;;;;;1.50;1.50;;;;;;;;5096244;27;45805;-68
2022/03/15 07:30:04;;;;;;;;;1.00;1.00;;;;;;;;5092159;27;45478;-69
2022/03/15 07:32:29;;;;;;;;;2.25;1.00;;;;;;;;5093632;27;47267;-69
2022/03/15 07:34:54;;;;;;;;;1.00;1.00;;;;;;;;5092325;27;45230;-68
2022/03/15 07:37:19;;;;;;;;;2.00;1.50;;;;;;;;5092094;27;45231;-68
2022/03/15 07:39:45;;;;;;;;;2.00;2.00;;;;;;;;5095489;27;45283;-69
2022/03/15 07:42:10;;;;;;;;;1.25;1.25;;;;;;;;5092547;27;45983;-69
2022/03/15 07:44:36;;;;;;;;;2.00;2.00;;;;;;;;5091997;27;46991;-69
2022/03/15 07:47:01;;;;;;;;;1.00;1.00;;;;;;;;5092181;27;45521;-69
2022/03/15 07:49:26;;;;;;;;;2.75;2.00;;;;;;;;5091817;27;45670;-69
2022/03/15 07:51:51;;;;;;;;;1.00;1.00;;;;;;;;5094145;27;46067;-69
2022/03/15 07:54:17;;;;;;;;;2.00;1.75;;;;;;;;5093516;27;45433;-68
2022/03/15 07:56:42;;;;;;;;;2.25;1.50;;;;;;;;5092083;27;45659;-68
2022/03/15 07:59:08;;;;;;;;;3.00;1.00;;;;;;;;5092130;27;45430;-69
2022/03/15 08:01:34;;;;;;;;;2.00;2.00;;;;;;;;5092016;27;45589;-68
2022/03/15 08:03:59;;;;;;;;;1.25;1.25;;;;;;;;5094046;27;45551;-68
2022/03/15 08:06:25;;;;;;;;;1.75;1.75;;;;;;;;5093470;27;45422;-70
2022/03/15 08:08:53;;;;;;;;;3.00;2.00;;;;;;;;5093343;27;45286;-70
2022/03/15 08:11:18;;;;;;;;;1.50;1.50;;;;;;;;5092605;27;46488;-69
2022/03/15 08:13:43;;;;;;;;;2.75;2.75;;;;;;;;5091711;27;45328;-70
2022/03/15 08:16:09;;;;;;;;;1.50;1.50;;;;;;;;5092785;27;45521;-70
2022/03/15 08:18:34;;;;;;;;;2.00;1.00;;;;;;;;5094835;27;45560;-70
2022/03/15 08:20:59;;;;;;;;;1.00;1.00;;;;;;;;5090563;27;45408;-68
2022/03/15 08:23:28;;;;;;;;;3.00;3.00;;;;;;;;5091732;27;45368;-69
2022/03/15 08:25:55;;;;;;;;;3.00;3.00;;;;;;;;5091702;27;45479;-69
2022/03/15 08:28:20;;;;;;;;;3.25;3.25;;;;;;;;5091598;27;45402;-69
2022/03/15 08:30:46;;;;;;;;;2.00;2.00;;;;;;;;5094783;27;46036;-69
2022/03/15 08:33:11;;;;;;;;;2.00;1.50;;;;;;;;5092041;27;45271;-69
2022/03/15 08:35:36;;;;;;;;;2.00;2.00;;;;;;;;5091364;27;45394;-69
2022/03/15 08:38:01;;;;;;;;;1.00;1.00;;;;;;;;5091408;27;45407;-69
2022/03/15 08:40:27;;;;;;;;;2.75;2.75;;;;;;;;5091515;27;46493;-69
2022/03/15 08:42:52;;;;;;;;;3.00;2.00;;;;;;;;5094014;27;45380;-69
2022/03/15 08:45:17;;;;;;;;;2.00;2.00;;;;;;;;5092732;27;45552;-69
2022/03/15 08:47:42;;;;;;;;;2.25;2.25;;;;;;;;5091183;27;45516;-69
2022/03/15 08:50:08;;;;;;;;;2.25;2.25;;;;;;;;5090554;27;46665;-69
2022/03/15 08:52:34;;;;;;;;;2.00;2.00;;;;;;;;5091669;27;45690;-69
2022/03/15 08:55:00;;;;;;;;;2.00;2.00;;;;;;;;5093337;27;45430;-69
2022/03/15 08:57:25;;;;;;;;;2.00;2.00;;;;;;;;5093984;27;45282;-69
2022/03/15 08:59:50;;;;;;;;;1.50;1.50;;;;;;;;5094297;27;47213;-69
2022/03/15 09:02:17;;;;;;;;;4.25;2.75;;;;;;;;5094732;27;45419;-69
2022/03/15 09:04:42;;;;;;;;;3.00;2.25;;;;;;;;5094575;27;45552;-69
2022/03/15 09:07:07;;;;;;;;;3.50;2.00;;;;;;;;5095475;27;45248;-69
2022/03/15 09:09:33;;;;;;;;;3.50;2.50;;;;;;;;5097409;27;46257;-69
2022/03/15 09:11:58;;;;;;;;;1.50;1.50;;;;;;;;5094511;27;45299;-69
2022/03/15 09:14:23;;;;;;;;;4.50;2.25;;;;;;;;5094567;27;45407;-69
2022/03/15 09:16:48;;;;;;;;;3.25;2.00;;;;;;;;5094926;27;45476;-69
2022/03/15 09:19:14;;;;;;;;;3.00;3.00;;;;;;;;5094116;27;46362;-69
2022/03/15 09:21:39;;;;;;;;;1.00;1.00;;;;;;;;5093794;27;45312;-69
2022/03/15 09:24:05;;;;;;;;;2.50;2.00;;;;;;;;5094669;27;45294;-69
2022/03/15 09:26:30;;;;;;;;;2.25;2.25;;;;;;;;5095640;27;45508;-69
2022/03/15 09:28:56;;;;;;;;;3.00;2.00;;;;;;;;5078733;27;48150;-69
2022/03/15 09:31:21;;;;;;;;;5.00;3.25;;;;;;;;5094426;27;45396;-69
2022/03/15 09:33:47;;;;;;;;;4.00;2.00;;;;;;;;5097076;27;45252;-68
2022/03/15 09:36:13;;;;;;;;;2.00;2.00;;;;;;;;5094917;27;45662;-69
2022/03/15 09:38:38;;;;;;;;;2.75;2.75;;;;;;;;5093881;27;45345;-69
2022/03/15 09:41:04;;;;;;;;;2.00;2.00;;;;;;;;5093958;27;45646;-69
2022/03/15 09:43:34;;;;;;;;;3.00;2.50;;;;;;;;5094839;27;45318;-69
2022/03/15 09:46:00;;;;;;;;;2.00;2.00;;;;;;;;5096215;27;45432;-69
2022/03/15 09:48:26;;;;;;;;;1.25;1.25;;;;;;;;5095220;27;46985;-69
2022/03/15 09:50:51;;;;;;;;;2.00;2.00;;;;;;;;5093643;27;45421;-70
2022/03/15 09:53:17;;;;;;;;;2.25;1.25;;;;;;;;5094089;27;45537;-69
2022/03/15 09:55:45;;;;;;;;;2.75;2.00;;;;;;;;5094075;27;45565;-69
2022/03/15 09:58:11;;;;;;;;;3.75;2.00;;;;;;;;5094407;27;46272;-68
2022/03/15 10:00:37;;;;;;;;;3.00;2.00;;;;;;;;5097016;27;45401;-69
2022/03/15 10:03:02;;;;;;;;;2.25;2.25;;;;;;;;5074973;27;45696;-69
2022/03/15 10:05:28;;;;;;;;;2.00;1.75;;;;;;;;5094974;27;45517;-69
2022/03/15 10:07:53;;;;;;;;;4.00;2.00;;;;;;;;5094774;27;46085;-69
2022/03/15 10:10:18;;;;;;;;;3.25;2.75;;;;;;;;5093941;27;45310;-69
2022/03/15 10:12:43;;;;;;;;;2.50;2.50;;;;;;;;5097249;27;45402;-69
2022/03/15 10:15:13;;;;;;;;;4.25;2.25;;;;;;;;5093876;27;45347;-69
2022/03/15 10:17:49;;;;;;;;;3.75;3.25;;;;;;;;5093203;27;47283;-69
2022/03/15 10:20:17;;;;;;;;;3.75;2.00;;;;;;;;5093387;27;48769;-69
2022/03/15 10:22:56;;;;;;;;;3.00;3.00;;;;;;;;5093505;27;45537;-69
2022/03/15 10:25:22;;;;;;;;;4.00;3.00;;;;;;;;5078435;27;45523;-69
2022/03/15 10:27:56;;;;;;;;;3.00;2.00;;;;;;;;5096105;27;46246;-70
2022/03/15 10:30:21;;;;;;;;;4.00;3.25;;;;;;;;5096222;27;45495;-69
2022/03/15 10:32:48;;;;;;;;;1.25;1.25;;;;;;;;5093350;27;45333;-70
2022/03/15 10:35:16;;;;;;;;;3.75;3.00;;;;;;;;5093363;27;45592;-69
2022/03/15 10:37:41;;;;;;;;;2.00;2.00;;;;;;;;5093073;27;46261;-69
2022/03/15 10:40:07;;;;;;;;;5.75;2.50;;;;;;;;5094181;27;45817;-69
2022/03/15 10:42:37;;;;;;;;;5.00;3.25;;;;;;;;5096019;27;45574;-69
2022/03/15 10:45:12;;;;;;;;;1.00;1.00;;;;;;;;5094057;27;45520;-68
2022/03/15 10:47:45;;;;;;;;;2.00;2.00;;;;;;;;5094414;27;46677;-69
2022/03/15 10:50:11;;;;;;;;;2.50;2.50;;;;;;;;5092931;27;45417;-69
2022/03/15 10:52:40;;;;;;;;;3.75;2.75;;;;;;;;5092986;27;45389;-68
2022/03/15 10:55:09;;;;;;;;;4.00;3.00;;;;;;;;5094340;27;45535;-69
2022/03/15 10:57:43;;;;;;;;;4.00;3.00;;;;;;;;5095674;27;47228;-69
2022/03/15 11:00:09;;;;;;;;;2.25;2.00;;;;;;;;5092237;27;45437;-69
2022/03/15 11:02:34;;;;;;;;;3.00;2.00;;;;;;;;5074249;27;45463;-69
2022/03/15 11:04:59;;;;;;;;;2.00;2.00;;;;;;;;5092903;27;45425;-69
2022/03/15 11:07:35;;;;;;;;;2.00;2.00;;;;;;;;5092750;27;46206;-69
2022/03/15 11:10:07;;;;;;;;;2.00;2.00;;;;;;;;5094764;27;45480;-69
2022/03/15 11:12:33;;;;;;;;;3.00;3.00;;;;;;;;5095483;27;45455;-69
2022/03/15 11:15:00;;;;;;;;;1.00;1.00;;;;;;;;5092227;27;46478;-69
2022/03/15 11:17:26;;;;;;;;;2.75;2.75;;;;;;;;5092446;27;47419;-69
2022/03/15 11:19:56;;;;;;;;;4.00;2.50;;;;;;;;5091773;27;45815;-69
2022/03/15 11:22:23;;;;;;;;;2.00;2.00;;;;;;;;5093972;27;45428;-69
2022/03/15 11:25:05;;;;;;;;;2.75;2.00;;;;;;;;5095306;27;45357;-69
2022/03/15 11:27:31;;;;;;;;;2.00;2.00;;;;;;;;5096040;27;46145;-69
2022/03/15 11:30:02;;;;;;;;;3.00;2.00;;;;;;;;5091850;27;45341;-69
2022/03/15 11:32:28;;;;;;;;;2.50;2.50;;;;;;;;5092361;27;45455;-69
2022/03/15 11:34:53;;;;;;;;;2.00;2.00;;;;;;;;5092518;27;45473;-69
2022/03/15 11:37:19;;;;;;;;;2.00;2.00;;;;;;;;5092222;27;46291;-69
2022/03/15 11:39:44;;;;;;;;;3.00;3.00;;;;;;;;5095711;27;45283;-69
2022/03/15 11:42:11;;;;;;;;;3.25;3.00;;;;;;;;5092884;27;45396;-69
2022/03/15 11:45:06;;;;;;;;;3.50;2.00;;;;;;;;5091592;27;45513;-69
2022/03/15 11:47:42;;;;;;;;;3.00;2.00;;;;;;;;4992395;28;48745;-69
2022/03/15 11:50:26;;;;;;;;;3.00;3.00;;;;;;;;5008890;28;45538;-69
2022/03/15 11:53:06;;;;;;;;;3.75;2.50;;;;;;;;5009463;28;45490;-69
2022/03/15 11:55:34;;;;;;;;;2.50;2.50;;;;;;;;5009389;28;45456;-69
2022/03/15 11:58:03;;;;;;;;;4.25;3.00;;;;;;;;5010942;28;46527;-69
2022/03/15 12:00:37;;;;;;;;;3.25;3.00;;;;;;;;5011190;28;45506;-69
2022/03/15 12:03:05;;;;;;;;;2.00;2.00;;;;;;;;5009148;28;45420;-69
2022/03/15 12:05:41;;;;;;;;;1.25;1.00;;;;;;;;5009512;28;45475;-69
2022/03/15 12:08:15;;;;;;;;;3.00;2.75;;;;;;;;5009032;28;45722;-69
2022/03/15 12:10:48;;;;;;;;;2.00;2.00;;;;;;;;5009057;28;45395;-69
2022/03/15 12:13:14;;;;;;;;;2.00;2.00;;;;;;;;4993400;28;45609;-69
2022/03/15 12:15:41;;;;;;;;;3.00;3.00;;;;;;;;5012406;28;45640;-69
2022/03/15 12:20:59;;;;;;;;;2.25;2.25;;;;;;;;5008849;28;45432;-69
2022/03/15 12:23:28;;;;;;;;;3.00;3.00;;;;;;;;5027583;28;45429;-69
2022/03/15 12:25:54;;;;;;;;;3.50;3.50;;;;;;;;5070891;27;45263;-69
2022/03/15 12:28:32;;;;;;;;;4.00;3.00;;;;;;;;5071159;27;46411;-69
2022/03/15 12:31:07;;;;;;;;;2.50;2.50;;;;;;;;5072453;28;45339;-69
2022/03/15 12:33:34;;;;;;;;;2.00;2.00;;;;;;;;5076850;28;45408;-69
2022/03/15 12:36:03;;;;;;;;;2.00;2.00;;;;;;;;5074586;27;45449;-69
2022/03/15 12:38:33;;;;;;;;;2.00;2.00;;;;;;;;5074260;27;46433;-69
2022/03/15 12:41:01;;;;;;;;;3.00;3.00;;;;;;;;5075412;27;45544;-69
2022/03/15 12:43:26;;;;;;;;;2.00;2.00;;;;;;;;5076316;28;45609;-69
2022/03/15 12:45:52;;;;;;;;;3.75;2.00;;;;;;;;5077142;27;45458;-69
2022/03/15 12:48:27;;;;;;;;;1.75;1.50;;;;;;;;5075957;27;45310;-69
2022/03/15 12:50:54;;;;;;;;;2.75;2.75;;;;;;;;5092289;27;45480;-69
2022/03/15 12:53:19;;;;;;;;;4.00;2.75;;;;;;;;5094926;27;50844;-69
2022/03/15 12:55:44;;;;;;;;;4.00;2.75;;;;;;;;5094600;27;45625;-68
2022/03/15 12:58:11;;;;;;;;;4.00;3.50;;;;;;;;5095498;27;46164;-69
2022/03/15 13:00:37;;;;;;;;;3.00;2.00;;;;;;;;5097873;27;45502;-69
2022/03/15 13:03:04;;;;;;;;;2.00;2.00;;;;;;;;5094650;27;45666;-69
2022/03/15 13:05:29;;;;;;;;;1.25;1.25;;;;;;;;5079243;27;45467;-69
2022/03/15 13:08:05;;;;;;;;;2.00;2.00;;;;;;;;5094403;27;45483;-70
2022/03/15 13:10:42;;;;;;;;;1.75;1.75;;;;;;;;5094516;27;45497;-69
2022/03/15 13:13:11;;;;;;;;;2.00;2.00;;;;;;;;5095880;27;45576;-69
2022/03/15 13:15:40;;;;;;;;;3.00;3.00;;;;;;;;5097751;27;45493;-69
2022/03/15 13:18:08;;;;;;;;;2.00;2.00;;;;;;;;5093573;27;46292;-69
2022/03/15 13:20:34;;;;;;;;;2.00;2.00;;;;;;;;5095530;27;45429;-69
2022/03/15 13:23:05;;;;;;;;;2.00;2.00;;;;;;;;5094413;27;45242;-69
2022/03/15 13:25:36;;;;;;;;;3.50;2.00;;;;;;;;5077443;27;45450;-69
2022/03/15 13:28:06;;;;;;;;;2.00;2.00;;;;;;;;5096218;27;46452;-69
2022/03/15 13:30:36;;;;;;;;;2.00;2.00;;;;;;;;5096962;27;45485;-68
2022/03/15 13:33:01;;;;;;;;;2.00;2.00;;;;;;;;5094205;27;45346;-69
2022/03/15 13:35:26;;;;;;;;;4.00;3.00;;;;;;;;5094356;27;45514;-69
2022/03/15 13:37:52;;;;;;;;;2.25;2.25;;;;;;;;5094125;27;46210;-69
2022/03/15 13:40:22;;;;;;;;;4.25;2.75;;;;;;;;5093957;27;45323;-68
2022/03/15 13:42:48;;;;;;;;;4.25;2.25;;;;;;;;5078710;27;45234;-69
2022/03/15 13:45:14;;;;;;;;;2.00;1.00;;;;;;;;5094601;27;45365;-69
2022/03/15 13:47:48;;;;;;;;;2.00;2.00;;;;;;;;5093982;27;45298;-68
2022/03/15 13:50:14;;;;;;;;;3.25;3.25;;;;;;;;5093703;27;45487;-68
2022/03/15 13:52:40;;;;;;;;;2.25;2.25;;;;;;;;5078458;27;45408;-69
2022/03/15 13:55:10;;;;;;;;;4.00;2.50;;;;;;;;5095225;27;45324;-68
2022/03/15 13:57:37;;;;;;;;;1.00;1.00;;;;;;;;5096741;27;45617;-69
2022/03/15 14:00:17;;;;;;;;;1.00;1.00;;;;;;;;5094925;27;45529;-68
2022/03/15 14:02:44;;;;;;;;;2.50;2.50;;;;;;;;5094414;27;45583;-68
2022/03/15 14:05:11;;;;;;;;;1.00;1.00;;;;;;;;5093606;27;45314;-68
2022/03/15 14:07:37;;;;;;;;;2.50;2.50;;;;;;;;5093375;27;45907;-69
2022/03/15 14:10:10;;;;;;;;;1.75;1.75;;;;;;;;5095582;27;45512;-69
2022/03/15 14:12:36;;;;;;;;;2.50;2.50;;;;;;;;5096739;27;45402;-69
2022/03/15 14:15:06;;;;;;;;;1.50;1.50;;;;;;;;5093452;27;45511;-70
2022/03/15 14:17:44;;;;;;;;;3.25;3.00;;;;;;;;5093340;27;45664;-70
2022/03/15 14:20:13;;;;;;;;;3.00;2.00;;;;;;;;5093424;27;45400;-69
2022/03/15 14:22:45;;;;;;;;;2.00;2.00;;;;;;;;5093348;27;45315;-70
2022/03/15 14:25:10;;;;;;;;;3.50;2.75;;;;;;;;5095329;27;45631;-69
2022/03/15 14:27:41;;;;;;;;;2.00;2.00;;;;;;;;5096793;27;45460;-69
2022/03/15 14:30:07;;;;;;;;;2.00;2.00;;;;;;;;5093304;27;45508;-69
2022/03/15 14:32:32;;;;;;;;;2.50;2.00;;;;;;;;5093134;27;45482;-69
2022/03/15 14:35:02;;;;;;;;;2.00;2.00;;;;;;;;5093428;27;45430;-70
2022/03/15 14:37:28;;;;;;;;;2.50;2.00;;;;;;;;5092613;27;46143;-69
2022/03/15 14:40:00;;;;;;;;;2.75;2.75;;;;;;;;5095210;27;46019;-69
2022/03/15 14:42:26;;;;;;;;;2.75;1.00;;;;;;;;5094925;27;45409;-69